Time;durP1;ratioP1;P1;durP2;ratioP2;P2;SDS_P1;SDS_P2;PMS_P1;PMS_P2;Temp;Humidity;BMP_temperature;BMP_pressure;BME280_temperature;BME280_humidity;BME280_pressure;Samples;Min_cycle;Max_cycle;Signal;HPM_P1;HPM_P2
2022/09/16 00:01:19;;;;;;;6.97;2.57;;;18.80;55.30;;;;;;5100320;28;20210;-94
2022/09/16 00:03:53;;;;;;;7.90;2.27;;;18.80;55.40;;;;;;5099012;28;20196;-94
2022/09/16 00:06:24;;;;;;;6.33;1.87;;;18.80;55.40;;;;;;5086958;28;20246;-93
2022/09/16 00:08:52;;;;;;;4.90;1.90;;;18.70;55.60;;;;;;5090621;28;20217;-92
2022/09/16 00:11:22;;;;;;;6.73;2.17;;;18.70;55.20;;;;;;5099560;28;20265;-93
2022/09/16 00:13:50;;;;;;;11.70;3.73;;;18.70;55.10;;;;;;5098891;28;20214;-92
2022/09/16 00:16:25;;;;;;;6.00;1.93;;;18.60;54.90;;;;;;5094919;28;20209;-92
2022/09/16 00:18:56;;;;;;;7.10;1.67;;;18.60;54.60;;;;;;5095639;28;20715;-92
2022/09/16 00:21:27;;;;;;;5.30;2.03;;;18.50;54.60;;;;;;5094873;28;20262;-92
2022/09/16 00:23:56;;;;;;;5.20;1.80;;;18.60;55.00;;;;;;5101301;28;20187;-94
2022/09/16 00:26:24;;;;;;;4.97;1.77;;;18.50;55.20;;;;;;5095867;28;20234;-93
2022/09/16 00:28:59;;;;;;;5.63;2.07;;;18.50;55.10;;;;;;5100226;28;20770;-94
2022/09/16 00:31:33;;;;;;;8.27;2.20;;;18.40;54.70;;;;;;5098754;28;20254;-94
2022/09/16 00:34:04;;;;;;;8.10;2.40;;;18.40;54.90;;;;;;5086949;28;20226;-92
2022/09/16 00:36:35;;;;;;;5.37;1.47;;;18.40;55.00;;;;;;5101686;28;20238;-91
2022/09/16 00:39:03;;;;;;;7.83;2.63;;;18.30;55.00;;;;;;5100840;28;20230;-92
2022/09/16 00:41:36;;;;;;;7.93;1.87;;;18.30;55.20;;;;;;5098972;28;20217;-94
2022/09/16 00:44:07;;;;;;;9.07;2.13;;;18.30;55.40;;;;;;5094233;28;20225;-93
2022/09/16 00:46:42;;;;;;;7.90;2.67;;;18.20;55.30;;;;;;5095230;28;20257;-94
2022/09/16 00:49:17;;;;;;;13.13;2.90;;;18.20;55.30;;;;;;5095848;28;20207;-94
2022/09/16 00:51:47;;;;;;;7.17;2.47;;;18.20;55.40;;;;;;5089510;28;20777;-93
2022/09/16 00:54:18;;;;;;;10.10;2.93;;;18.20;55.40;;;;;;5098884;28;20260;-94
2022/09/16 00:56:51;;;;;;;6.17;2.03;;;18.20;55.50;;;;;;5097541;28;20299;-94
2022/09/16 00:59:25;;;;;;;8.93;2.50;;;18.20;55.40;;;;;;5097199;28;20209;-94
2022/09/16 01:02:07;;;;;;;10.53;2.90;;;18.10;55.30;;;;;;5095569;28;20269;-94
2022/09/16 01:07:31;;;;;;;7.73;2.57;;;18.20;55.70;;;;;;5096846;28;20204;-92
2022/09/16 01:09:59;;;;;;;6.23;2.27;;;18.20;55.90;;;;;;5100367;28;20227;-93
2022/09/16 01:12:30;;;;;;;7.63;2.17;;;18.20;55.70;;;;;;5098102;28;20200;-94
2022/09/16 01:15:00;;;;;;;6.63;1.70;;;18.20;55.70;;;;;;5085234;28;20255;-93
2022/09/16 01:17:52;;;;;;;7.17;2.23;;;18.10;55.60;;;;;;5101812;28;20656;-92
2022/09/16 01:20:58;;;;;;;8.80;2.00;;;18.20;55.70;;;;;;5100870;28;20718;-93
2022/09/16 01:23:55;;;;;;;4.47;1.63;;;18.20;55.70;;;;;;5100522;28;20201;-94
2022/09/16 01:26:56;;;;;;;9.50;2.87;;;18.20;55.70;;;;;;5106431;28;20246;-95
2022/09/16 01:29:44;;;;;;;13.23;2.97;;;18.20;55.70;;;;;;5079056;28;20256;-94
2022/09/16 01:32:19;;;;;;;5.53;1.87;;;18.20;55.60;;;;;;5096931;28;20240;-93
2022/09/16 01:34:56;;;;;;;10.57;2.30;;;18.20;55.60;;;;;;5096525;28;20224;-93
2022/09/16 01:37:31;;;;;;;6.83;2.10;;;18.20;55.70;;;;;;5101263;28;20724;-91
2022/09/16 01:40:07;;;;;;;8.23;2.83;;;18.10;55.70;;;;;;5099330;28;20926;-93
2022/09/16 01:42:40;;;;;;;10.07;2.90;;;18.20;55.70;;;;;;5096724;28;20205;-92
2022/09/16 01:45:20;;;;;;;6.80;2.33;;;18.20;55.70;;;;;;5105132;28;20222;-94
2022/09/16 01:48:00;;;;;;;4.80;1.93;;;18.20;55.70;;;;;;5109548;28;20196;-94
2022/09/16 01:50:32;;;;;;;4.17;1.73;;;18.20;56.00;;;;;;5108414;28;20208;-94
2022/09/16 01:53:11;;;;;;;6.17;2.43;;;18.20;55.90;;;;;;5106534;28;20250;-93
2022/09/16 01:55:42;;;;;;;7.90;2.70;;;18.20;55.80;;;;;;5100246;28;20216;-94
2022/09/16 01:58:18;;;;;;;11.53;3.63;;;18.20;55.90;;;;;;5097641;28;20205;-95
2022/09/16 02:00:48;;;;;;;4.27;1.93;;;18.20;56.00;;;;;;5098404;28;20262;-93
2022/09/16 02:03:23;;;;;;;9.70;2.60;;;18.10;56.00;;;;;;5092245;28;20204;-94
2022/09/16 02:05:57;;;;;;;15.30;4.13;;;18.10;56.20;;;;;;5093793;28;20540;-92
2022/09/16 02:08:32;;;;;;;4.80;2.23;;;18.20;56.20;;;;;;5097679;28;20238;-92
2022/09/16 02:11:04;;;;;;;10.40;3.17;;;18.20;56.10;;;;;;5078596;28;20208;-94
2022/09/16 02:13:36;;;;;;;4.83;1.93;;;18.20;56.10;;;;;;5096876;28;20297;-92
2022/09/16 02:16:08;;;;;;;12.03;3.80;;;18.10;56.30;;;;;;5105582;28;20198;-92
2022/09/16 02:18:40;;;;;;;11.23;3.27;;;18.10;56.30;;;;;;5114359;28;20189;-93
2022/09/16 02:21:13;;;;;;;10.60;3.20;;;18.10;56.20;;;;;;5111045;28;20192;-93
2022/09/16 02:23:46;;;;;;;6.50;1.57;;;18.20;56.00;;;;;;5091581;28;20253;-93
2022/09/16 02:26:22;;;;;;;6.07;1.63;;;18.10;55.90;;;;;;5083994;28;20233;-94
2022/09/16 02:28:52;;;;;;;6.90;1.87;;;18.10;56.20;;;;;;5097372;28;20200;-93
2022/09/16 02:31:26;;;;;;;6.83;2.00;;;18.10;56.10;;;;;;5094809;28;20232;-94
2022/09/16 02:34:03;;;;;;;6.77;2.17;;;18.10;56.00;;;;;;5087164;28;20234;-93
2022/09/16 02:36:47;;;;;;;7.50;2.53;;;18.10;56.00;;;;;;5075340;28;20204;-92
2022/09/16 02:39:36;;;;;;;11.60;2.53;;;18.10;56.20;;;;;;5093031;28;20206;-92
2022/09/16 02:42:06;;;;;;;6.00;1.50;;;18.10;56.50;;;;;;5085143;28;20233;-94
2022/09/16 02:44:43;;;;;;;7.37;1.97;;;18.10;56.90;;;;;;5090801;28;20202;-93
2022/09/16 02:47:18;;;;;;;7.57;2.17;;;18.10;57.60;;;;;;5090256;28;20231;-96
2022/09/16 02:50:02;;;;;;;8.10;2.63;;;18.10;57.90;;;;;;5098705;28;20221;-94
2022/09/16 02:52:37;;;;;;;8.27;2.60;;;18.10;57.90;;;;;;5099291;28;20207;-96
2022/09/16 02:55:17;;;;;;;7.53;2.43;;;18.10;57.80;;;;;;5097402;28;20243;-94
2022/09/16 02:57:45;;;;;;;6.07;1.67;;;18.10;58.10;;;;;;5087136;28;20222;-95
2022/09/16 03:00:13;;;;;;;7.83;2.13;;;18.10;58.00;;;;;;5100220;28;20196;-92
2022/09/16 03:02:40;;;;;;;8.90;2.40;;;18.10;58.10;;;;;;5084857;28;20211;-92
2022/09/16 03:05:09;;;;;;;5.93;1.90;;;18.10;58.30;;;;;;5089441;28;20242;-90
2022/09/16 03:07:40;;;;;;;10.73;2.93;;;18.10;58.50;;;;;;5097373;28;20194;-96
2022/09/16 03:10:13;;;;;;;7.90;2.33;;;18.10;58.50;;;;;;5094194;28;20625;-93
2022/09/16 03:12:53;;;;;;;13.03;3.63;;;18.20;58.50;;;;;;5095347;28;20250;-92
2022/09/16 03:15:47;;;;;;;3.67;1.50;;;18.20;58.40;;;;;;5095317;28;20232;-93
2022/09/16 03:18:59;;;;;;;7.70;2.33;;;18.20;58.30;;;;;;5094050;28;20227;-92
2022/09/16 03:21:48;;;;;;;3.40;1.10;;;18.20;58.10;;;;;;5052904;28;20204;-94
2022/09/16 03:24:26;;;;;;;6.20;2.00;;;18.20;57.70;;;;;;5060950;28;20233;-91
2022/09/16 03:27:03;;;;;;;13.40;3.17;;;18.20;57.80;;;;;;5092925;28;20206;-92
2022/09/16 03:29:35;;;;;;;6.17;2.03;;;18.20;58.00;;;;;;5091586;28;20210;-94
2022/09/16 03:32:14;;;;;;;8.13;2.67;;;18.20;58.10;;;;;;5096483;28;20215;-95
2022/09/16 03:34:47;;;;;;;5.27;1.77;;;18.20;58.30;;;;;;5084349;28;20238;-94
2022/09/16 03:37:19;;;;;;;10.03;2.83;;;18.20;58.40;;;;;;5098284;28;20229;-94
2022/09/16 03:39:55;;;;;;;6.07;2.00;;;18.20;58.50;;;;;;5091623;28;20223;-95
2022/09/16 03:42:23;;;;;;;11.90;3.43;;;18.20;58.50;;;;;;5088193;28;20199;-94
2022/09/16 03:44:56;;;;;;;8.43;2.00;;;18.20;58.50;;;;;;5096366;28;20203;-92
2022/09/16 03:47:23;;;;;;;10.77;2.43;;;18.20;58.50;;;;;;5091490;28;20241;-93
2022/09/16 03:49:58;;;;;;;5.50;1.57;;;18.20;58.50;;;;;;5100482;28;20293;-92
2022/09/16 03:52:29;;;;;;;11.77;3.33;;;18.20;58.90;;;;;;5082258;28;20314;-93
2022/09/16 03:54:58;;;;;;;8.70;2.40;;;18.20;59.10;;;;;;5106794;28;20235;-92
2022/09/16 03:57:29;;;;;;;12.57;4.23;;;18.30;59.20;;;;;;5079680;28;20629;-92
2022/09/16 03:59:57;;;;;;;5.40;2.03;;;18.30;59.40;;;;;;5094339;28;20208;-92
2022/09/16 04:02:24;;;;;;;7.17;2.50;;;18.30;60.00;;;;;;5093001;28;20244;-94
2022/09/16 04:04:53;;;;;;;4.80;1.57;;;18.30;60.70;;;;;;5099217;28;20197;-93
2022/09/16 04:07:22;;;;;;;5.83;1.80;;;18.30;61.50;;;;;;5094982;28;20211;-93
2022/09/16 04:09:53;;;;;;;6.47;2.03;;;18.30;62.00;;;;;;5095878;28;20206;-93
2022/09/16 04:12:20;;;;;;;5.07;1.50;;;18.30;62.50;;;;;;5106824;28;20231;-95
2022/09/16 04:14:49;;;;;;;5.43;1.80;;;18.30;62.30;;;;;;5090040;28;20287;-93
2022/09/16 04:17:23;;;;;;;6.47;2.10;;;18.30;63.10;;;;;;5086512;28;20199;-94
2022/09/16 04:19:53;;;;;;;5.60;1.63;;;18.20;63.80;;;;;;5095934;28;20195;-94
2022/09/16 04:22:29;;;;;;;6.60;2.20;;;18.20;63.40;;;;;;5096556;28;20261;-94
2022/09/16 04:24:59;;;;;;;5.60;1.60;;;18.20;64.30;;;;;;5096469;28;20251;-93
2022/09/16 04:27:31;;;;;;;8.93;2.77;;;18.20;63.90;;;;;;5104563;28;20295;-94
2022/09/16 04:29:59;;;;;;;15.23;4.03;;;18.20;63.80;;;;;;5090842;28;20317;-95
2022/09/16 04:32:26;;;;;;;8.00;2.37;;;18.20;63.80;;;;;;5101064;28;20205;-94
2022/09/16 04:35:02;;;;;;;4.60;1.80;;;18.20;63.80;;;;;;5105882;28;20233;-94
2022/09/16 04:37:35;;;;;;;6.97;2.20;;;18.20;64.10;;;;;;5102276;28;20275;-95
2022/09/16 04:40:05;;;;;;;6.83;2.57;;;18.20;63.80;;;;;;5106393;28;20194;-94
2022/09/16 04:42:35;;;;;;;5.33;1.67;;;18.20;63.80;;;;;;5101688;28;20755;-95
2022/09/16 04:45:05;;;;;;;9.70;2.50;;;18.20;64.20;;;;;;5107725;28;20210;-95
2022/09/16 04:47:39;;;;;;;8.93;2.63;;;18.20;64.00;;;;;;5099175;28;20241;-95
2022/09/16 04:50:13;;;;;;;6.40;1.83;;;18.20;65.00;;;;;;5102415;28;20195;-96
2022/09/16 04:52:41;;;;;;;6.27;1.63;;;18.20;64.60;;;;;;5102922;28;20199;-95
2022/09/16 04:55:12;;;;;;;7.40;1.67;;;18.20;64.40;;;;;;5099665;28;20230;-96
2022/09/16 04:57:40;;;;;;;7.20;2.17;;;18.10;65.50;;;;;;5100078;28;20203;-95
2022/09/16 05:00:09;;;;;;;9.27;2.70;;;18.10;65.60;;;;;;5100043;28;20203;-95
2022/09/16 05:02:39;;;;;;;5.63;1.40;;;18.10;65.80;;;;;;5099081;28;20233;-95
2022/09/16 05:05:16;;;;;;;8.23;2.50;;;18.10;65.80;;;;;;5101808;28;20207;-95
2022/09/16 05:07:43;;;;;;;7.13;1.50;;;18.10;66.30;;;;;;5101941;28;20261;-95
2022/09/16 05:10:19;;;;;;;9.53;2.87;;;18.00;65.70;;;;;;5102310;28;20206;-93
2022/09/16 05:12:51;;;;;;;4.47;1.60;;;18.10;66.70;;;;;;5104139;28;20213;-95
2022/09/16 05:15:20;;;;;;;6.73;2.37;;;18.00;66.50;;;;;;5107574;28;20224;-94
2022/09/16 05:17:49;;;;;;;6.30;1.80;;;18.10;66.50;;;;;;5095552;28;20205;-94
2022/09/16 05:20:23;;;;;;;11.60;3.50;;;18.00;67.20;;;;;;5097004;28;20211;-95
2022/09/16 05:22:56;;;;;;;4.73;1.63;;;18.00;67.30;;;;;;5108072;28;20257;-94
2022/09/16 05:25:33;;;;;;;11.00;2.90;;;18.00;67.50;;;;;;5098530;28;20223;-94
2022/09/16 05:28:01;;;;;;;7.53;1.93;;;18.00;67.70;;;;;;5099774;28;20332;-95
2022/09/16 05:30:29;;;;;;;6.67;2.07;;;18.00;66.80;;;;;;5099189;28;20229;-94
2022/09/16 05:32:56;;;;;;;7.23;1.97;;;18.00;67.40;;;;;;5101332;28;20614;-92
2022/09/16 05:35:29;;;;;;;4.53;1.80;;;18.00;67.00;;;;;;5099963;28;20229;-96
2022/09/16 05:37:57;;;;;;;9.57;2.77;;;18.00;67.70;;;;;;5098677;28;20208;-95
2022/09/16 05:40:26;;;;;;;6.87;2.30;;;18.00;67.10;;;;;;5096326;28;20211;-95
2022/09/16 05:42:56;;;;;;;5.70;1.67;;;17.90;66.80;;;;;;5098265;28;20210;-96
2022/09/16 05:45:26;;;;;;;13.30;3.93;;;17.90;67.10;;;;;;5096274;28;20211;-95
2022/09/16 05:48:03;;;;;;;10.43;2.57;;;18.00;67.20;;;;;;5093125;28;20272;-96
2022/09/16 05:50:30;;;;;;;6.80;2.37;;;17.90;67.50;;;;;;5099681;28;20291;-95
2022/09/16 05:53:00;;;;;;;10.87;3.10;;;17.90;66.70;;;;;;5111917;28;20192;-91
2022/09/16 05:55:31;;;;;;;7.60;1.97;;;17.90;66.80;;;;;;5100458;28;20241;-95
2022/09/16 05:58:26;;;;;;;6.43;1.87;;;17.90;67.40;;;;;;5094476;28;20206;-95
2022/09/16 06:01:39;;;;;;;7.83;2.33;;;17.90;68.10;;;;;;5100106;28;20212;-95
2022/09/16 06:04:14;;;;;;;7.47;2.37;;;17.90;68.00;;;;;;5092756;28;20204;-96
2022/09/16 06:06:58;;;;;;;6.23;2.23;;;17.80;67.30;;;;;;5098453;28;20198;-95
2022/09/16 06:09:26;;;;;;;9.03;3.27;;;17.80;67.60;;;;;;5093305;28;20672;-96
2022/09/16 06:11:56;;;;;;;7.77;2.73;;;17.80;67.60;;;;;;5103698;28;20200;-94
2022/09/16 06:14:26;;;;;;;9.30;2.37;;;17.80;67.90;;;;;;5111933;28;20249;-92
2022/09/16 06:16:54;;;;;;;10.10;2.97;;;17.80;68.50;;;;;;5111810;28;20211;-95
2022/09/16 06:19:32;;;;;;;;;;;;;;;;;;;;;
2022/09/16 06:22:00;;;;;;;8.07;1.97;;;17.70;66.20;;;;;;5097545;28;20751;-93
2022/09/16 06:24:31;;;;;;;11.07;2.37;;;17.80;66.20;;;;;;5099816;28;20251;-92
2022/09/16 06:27:00;;;;;;;7.17;2.90;;;17.70;66.20;;;;;;5098220;28;20231;-92
2022/09/16 06:29:28;;;;;;;8.00;2.20;;;17.70;66.10;;;;;;5095231;28;20210;-93
2022/09/16 06:31:56;;;;;;;11.40;3.17;;;17.70;66.00;;;;;;5087553;28;20288;-91
2022/09/16 06:34:29;;;;;;;10.50;3.27;;;17.70;65.80;;;;;;5092352;28;20220;-93
2022/09/16 06:36:57;;;;;;;8.37;2.47;;;17.60;65.40;;;;;;5095710;28;20615;-94
2022/09/16 06:39:25;;;;;;;10.97;3.57;;;17.60;65.10;;;;;;5094769;28;20866;-94
2022/09/16 06:41:53;;;;;;;5.63;1.60;;;17.60;64.90;;;;;;5076122;28;20229;-95
2022/09/16 06:44:21;;;;;;;6.93;2.33;;;17.60;64.80;;;;;;5089653;28;20666;-94
2022/09/16 06:46:55;;;;;;;8.43;2.67;;;17.60;64.30;;;;;;5091351;28;20188;-90
2022/09/16 06:49:21;;;;;;;13.53;3.20;;;17.60;64.20;;;;;;5084881;28;20243;-91
2022/09/16 06:51:50;;;;;;;7.97;2.53;;;17.50;64.20;;;;;;5074337;28;20302;-91
2022/09/16 06:54:17;;;;;;;10.57;2.40;;;17.50;64.10;;;;;;5085395;28;20242;-91
2022/09/16 06:56:44;;;;;;;10.93;3.00;;;17.50;64.20;;;;;;5091561;28;20303;-90
2022/09/16 06:59:13;;;;;;;7.40;2.43;;;17.50;64.00;;;;;;5077472;28;20234;-90
2022/09/16 07:01:40;;;;;;;10.47;2.87;;;17.50;64.00;;;;;;5087380;28;20218;-90
2022/09/16 07:04:12;;;;;;;8.93;3.13;;;17.50;64.30;;;;;;5092967;28;20220;-95
2022/09/16 07:06:39;;;;;;;6.90;2.47;;;17.50;64.80;;;;;;5086060;28;20674;-92
2022/09/16 07:09:07;;;;;;;6.00;2.03;;;17.50;64.50;;;;;;5074879;28;20319;-93
2022/09/16 07:11:34;;;;;;;7.93;2.73;;;17.60;64.80;;;;;;5092595;28;20731;-93
2022/09/16 07:14:01;;;;;;;7.70;2.20;;;17.60;64.90;;;;;;5092584;28;20253;-90
2022/09/16 07:16:28;;;;;;;13.57;4.07;;;17.60;64.90;;;;;;5090161;28;20312;-88
2022/09/16 07:19:10;;;;;;;6.53;2.00;;;17.70;64.90;;;;;;5092083;28;20233;-91
2022/09/16 07:21:36;;;;;;;11.03;2.80;;;17.70;64.70;;;;;;5085786;28;20210;-92
2022/09/16 07:24:04;;;;;;;9.30;3.07;;;17.80;64.90;;;;;;5092530;28;20696;-92
2022/09/16 07:26:34;;;;;;;8.63;2.63;;;17.80;65.00;;;;;;5086031;28;20201;-95
2022/09/16 07:29:02;;;;;;;12.57;3.73;;;17.90;65.00;;;;;;5074371;28;20668;-91
2022/09/16 07:31:46;;;;;;;8.70;2.40;;;18.00;65.00;;;;;;5074337;28;20202;-90
2022/09/16 07:34:19;;;;;;;10.10;2.40;;;18.00;64.70;;;;;;5085889;28;20550;-93
2022/09/16 07:36:58;;;;;;;11.73;3.27;;;18.10;64.30;;;;;;5089919;28;20730;-93
2022/09/16 07:39:34;;;;;;;11.53;3.37;;;18.10;64.50;;;;;;5086423;28;20202;-92
2022/09/16 07:45:24;;;;;;;14.37;3.33;;;18.20;64.60;;;;;;5088640;28;20189;-93
2022/09/16 07:47:53;;;;;;;16.70;3.93;;;18.20;64.40;;;;;;5090071;28;20565;-92
2022/09/16 07:50:22;;;;;;;10.27;2.70;;;18.20;64.70;;;;;;5086395;28;20195;-93
2022/09/16 07:52:55;;;;;;;11.13;3.63;;;18.10;64.90;;;;;;5083166;28;21071;-92
2022/09/16 07:55:22;;;;;;;6.03;1.90;;;18.10;65.10;;;;;;5086795;28;20279;-91
2022/09/16 07:57:49;;;;;;;10.53;3.03;;;18.10;65.10;;;;;;5086609;28;20199;-90
2022/09/16 08:00:16;;;;;;;11.20;3.07;;;18.10;65.50;;;;;;5087552;28;20207;-90
2022/09/16 08:02:43;;;;;;;15.23;4.07;;;18.10;65.70;;;;;;5087445;28;20221;-91
2022/09/16 08:05:12;;;;;;;6.40;1.97;;;18.10;65.70;;;;;;5087579;28;20265;-94
2022/09/16 08:07:40;;;;;;;14.23;3.87;;;18.10;66.00;;;;;;5090689;28;20738;-94
2022/09/16 08:10:09;;;;;;;10.03;2.97;;;18.10;66.50;;;;;;5092664;28;20204;-92
2022/09/16 08:12:38;;;;;;;5.43;1.90;;;18.10;66.50;;;;;;5086880;28;20206;-93
2022/09/16 08:15:11;;;;;;;7.17;2.17;;;18.20;66.80;;;;;;5093968;28;20276;-92
2022/09/16 08:17:39;;;;;;;7.83;2.50;;;18.20;66.90;;;;;;5093216;28;20644;-91
2022/09/16 08:20:08;;;;;;;11.90;3.10;;;18.20;66.80;;;;;;5081676;28;20233;-92
2022/09/16 08:23:14;;;;;;;9.17;2.83;;;18.20;67.20;;;;;;5072650;28;20575;-92
2022/09/16 08:25:41;;;;;;;6.27;2.57;;;18.20;68.30;;;;;;5088905;28;20294;-91
2022/09/16 08:28:13;;;;;;;12.47;2.97;;;18.30;67.70;;;;;;5073632;28;20189;-93
2022/09/16 08:30:40;;;;;;;11.30;2.93;;;18.30;68.30;;;;;;5210532;22;20284;-93
2022/09/16 08:33:14;;;;;;;11.20;2.93;;;18.30;68.10;;;;;;5103021;28;20238;-92
2022/09/16 08:35:41;;;;;;;10.13;3.00;;;18.40;69.10;;;;;;5111053;28;20224;-93
2022/09/16 08:38:12;;;;;;;10.37;3.50;;;18.40;68.30;;;;;;5120416;28;20220;-89
2022/09/16 08:40:44;;;;;;;8.57;2.80;;;18.40;68.30;;;;;;5188569;22;20730;-91
2022/09/16 08:43:18;;;;;;;9.33;2.33;;;18.40;68.20;;;;;;5113876;28;20292;-91
2022/09/16 08:45:56;;;;;;;7.73;2.47;;;18.40;68.00;;;;;;5115105;28;20264;-93
2022/09/16 08:48:36;;;;;;;15.57;4.27;;;18.50;67.00;;;;;;5127032;22;20192;-92
2022/09/16 08:51:19;;;;;;;11.47;2.83;;;18.50;67.70;;;;;;5076584;28;20245;-92
2022/09/16 08:56:36;;;;;;;7.00;2.30;;;18.60;68.30;;;;;;5131485;22;20245;-92
2022/09/16 08:59:11;;;;;;;6.00;2.23;;;18.70;67.30;;;;;;5119333;28;20209;-92
2022/09/16 09:01:46;;;;;;;8.87;2.50;;;18.70;66.70;;;;;;5115042;28;20308;-91
2022/09/16 09:04:13;;;;;;;11.87;3.50;;;18.80;66.40;;;;;;5114486;28;20204;-91
2022/09/16 09:06:58;;;;;;;9.90;2.87;;;18.80;66.20;;;;;;5106973;28;20619;-90
2022/09/16 09:09:48;;;;;;;4.27;1.40;;;18.80;65.20;;;;;;5106822;28;20270;-91
2022/09/16 09:12:35;;;;;;;11.87;3.20;;;18.90;66.30;;;;;;5112986;28;20202;-90
2022/09/16 09:15:15;;;;;;;10.60;3.33;;;19.00;66.60;;;;;;5114647;28;20568;-90
2022/09/16 09:17:55;;;;;;;8.37;2.40;;;19.10;66.40;;;;;;5115291;28;20205;-91
2022/09/16 09:20:48;;;;;;;6.30;1.80;;;19.20;65.40;;;;;;5118414;28;20657;-89
2022/09/16 09:26:22;;;;;;;6.47;1.80;;;19.40;65.10;;;;;;5103214;28;20228;-90
2022/09/16 09:29:22;;;;;;;5.50;1.43;;;19.50;65.20;;;;;;5106681;28;20650;-93
2022/09/16 09:31:57;;;;;;;10.93;2.97;;;19.50;65.70;;;;;;5103050;28;20205;-89
2022/09/16 09:34:36;;;;;;;15.70;4.77;;;19.60;65.10;;;;;;5112010;28;20202;-91
2022/09/16 09:37:17;;;;;;;6.40;1.80;;;19.60;64.70;;;;;;5106933;22;20240;-90
2022/09/16 09:40:11;;;;;;;11.70;2.37;;;19.60;64.50;;;;;;5096577;28;20209;-92
2022/09/16 09:42:46;;;;;;;6.13;2.40;;;19.60;64.50;;;;;;5096231;28;20202;-90
2022/09/16 09:45:36;;;;;;;11.13;3.47;;;19.50;63.90;;;;;;5096042;28;20958;-90
2022/09/16 09:51:15;;;;;;;8.00;2.27;;;19.40;64.30;;;;;;5094275;28;20210;-91
2022/09/16 09:53:51;;;;;;;6.00;2.27;;;19.40;64.30;;;;;;5078203;28;20191;-91
2022/09/16 09:56:25;;;;;;;5.17;1.77;;;19.40;64.10;;;;;;5081599;28;20233;-92
2022/09/16 09:59:02;;;;;;;5.53;2.20;;;19.50;65.20;;;;;;5094767;28;20211;-90
2022/09/16 10:01:45;;;;;;;9.00;3.00;;;19.40;64.70;;;;;;5091395;28;20245;-90
2022/09/16 10:04:15;;;;;;;10.67;2.73;;;19.50;64.70;;;;;;5085330;28;20541;-96
2022/09/16 10:06:44;;;;;;;9.60;3.07;;;19.50;64.60;;;;;;5088541;28;20230;-89
2022/09/16 10:09:26;;;;;;;15.37;4.63;;;19.50;64.60;;;;;;5099303;28;20246;-91
2022/09/16 10:11:55;;;;;;;6.90;2.33;;;19.50;64.70;;;;;;5102650;28;20187;-90
2022/09/16 10:14:30;;;;;;;7.27;2.27;;;19.60;64.90;;;;;;5087592;28;20191;-92
2022/09/16 10:17:04;;;;;;;8.13;2.47;;;19.60;64.30;;;;;;5085786;28;20233;-89
2022/09/16 10:19:35;;;;;;;7.57;2.27;;;19.60;62.90;;;;;;5095668;28;20233;-91
2022/09/16 10:22:21;;;;;;;8.67;2.00;;;19.70;62.80;;;;;;5085835;28;20207;-91
2022/09/16 10:24:55;;;;;;;9.50;2.93;;;19.60;62.00;;;;;;5075022;28;20288;-90
2022/09/16 10:27:25;;;;;;;7.63;2.20;;;19.60;62.10;;;;;;5087828;28;20206;-92
2022/09/16 10:30:07;;;;;;;5.50;1.70;;;19.60;62.40;;;;;;5077412;28;21027;-92
2022/09/16 10:32:47;;;;;;;3.83;1.43;;;19.60;61.90;;;;;;5086411;28;20623;-91
2022/09/16 10:35:24;;;;;;;4.70;2.07;;;19.70;60.50;;;;;;5091330;28;20232;-90
2022/09/16 10:37:54;;;;;;;7.03;2.20;;;19.70;61.10;;;;;;5106065;28;20302;-94
2022/09/16 10:40:23;;;;;;;10.03;3.10;;;19.80;61.90;;;;;;5101220;28;20271;-92
2022/09/16 10:42:56;;;;;;;8.10;2.37;;;19.80;62.90;;;;;;5102135;28;20263;-94
2022/09/16 10:45:27;;;;;;;9.43;3.10;;;19.90;62.10;;;;;;5101739;28;20322;-90
2022/09/16 10:48:08;;;;;;;5.87;1.53;;;20.00;60.70;;;;;;5114448;28;20204;-93
2022/09/16 10:50:55;;;;;;;8.23;2.20;;;20.10;60.70;;;;;;5109255;28;20295;-90
2022/09/16 10:53:29;;;;;;;6.87;2.40;;;20.10;60.00;;;;;;5113837;28;20205;-89
2022/09/16 10:56:03;;;;;;;7.30;2.70;;;20.20;59.40;;;;;;5111026;28;20291;-91
2022/09/16 10:58:48;;;;;;;8.27;2.20;;;20.20;59.40;;;;;;5115704;28;20206;-92
2022/09/16 11:01:37;;;;;;;9.07;2.97;;;20.30;60.00;;;;;;5112091;28;20203;-89
2022/09/16 11:04:37;;;;;;;13.40;3.97;;;20.40;60.50;;;;;;5105041;28;20218;-93
2022/09/16 11:07:14;;;;;;;10.10;2.67;;;20.50;59.10;;;;;;5109779;28;20228;-90
2022/09/16 11:09:58;;;;;;;13.47;3.23;;;20.60;59.00;;;;;;5109600;28;20678;-90
2022/09/16 11:12:39;;;;;;;7.37;2.70;;;20.70;59.10;;;;;;5096492;28;20289;-91
2022/09/16 11:15:19;;;;;;;9.07;3.23;;;20.80;59.10;;;;;;5108318;28;20208;-90
2022/09/16 11:17:58;;;;;;;10.80;3.43;;;20.80;58.40;;;;;;5113059;28;20228;-94
2022/09/16 11:20:56;;;;;;;9.40;2.57;;;20.90;57.40;;;;;;5110095;28;20274;-91
2022/09/16 11:23:34;;;;;;;10.20;3.40;;;21.00;57.20;;;;;;5112335;28;20233;-90
2022/09/16 11:26:13;;;;;;;9.23;2.53;;;21.00;58.00;;;;;;5097616;28;20240;-91
2022/09/16 11:29:02;;;;;;;9.73;2.80;;;21.00;57.20;;;;;;5096983;28;20202;-90
2022/09/16 11:31:40;;;;;;;8.70;2.67;;;20.90;57.30;;;;;;5112493;28;20198;-93
2022/09/16 11:34:42;;;;;;;11.97;3.53;;;20.90;57.20;;;;;;5111915;28;20619;-91
2022/09/16 11:37:19;;;;;;;10.30;2.97;;;20.90;57.30;;;;;;5095494;28;20221;-91
2022/09/16 11:40:06;;;;;;;10.23;3.30;;;20.90;56.70;;;;;;5108504;28;20198;-90
2022/09/16 11:42:40;;;;;;;12.03;3.87;;;20.90;55.90;;;;;;5102225;28;20255;-92
2022/09/16 11:45:29;;;;;;;11.40;3.27;;;20.90;56.40;;;;;;5109741;28;20221;-92
2022/09/16 11:48:34;;;;;;;8.00;2.70;;;20.90;56.50;;;;;;5106480;28;20202;-94
2022/09/16 11:51:09;;;;;;;8.63;3.23;;;20.90;56.20;;;;;;5108002;28;20194;-92
2022/09/16 11:54:12;;;;;;;9.67;3.67;;;20.90;55.90;;;;;;5116882;28;20264;-94
2022/09/16 11:56:44;;;;;;;9.90;3.47;;;21.00;55.90;;;;;;5112332;28;20217;-91
2022/09/16 11:59:18;;;;;;;11.37;3.27;;;21.00;56.60;;;;;;5093131;28;20237;-92
2022/09/16 12:01:49;;;;;;;9.97;3.37;;;21.10;57.40;;;;;;5099541;28;20210;-92
2022/09/16 12:04:26;;;;;;;8.33;2.43;;;21.20;56.60;;;;;;5117328;28;20201;-94
2022/09/16 12:07:02;;;;;;;9.50;2.97;;;21.30;55.80;;;;;;5117133;28;20197;-95
2022/09/16 12:09:39;;;;;;;8.20;2.20;;;21.40;56.70;;;;;;5115784;28;20569;-94
2022/09/16 12:12:13;;;;;;;7.97;2.30;;;21.50;56.60;;;;;;5115519;28;20213;-95
2022/09/16 12:14:45;;;;;;;15.03;3.40;;;21.50;56.30;;;;;;5117546;28;20217;-96
2022/09/16 12:17:38;;;;;;;10.90;1.90;;;21.50;56.80;;;;;;5116660;28;20280;-94
2022/09/16 12:20:14;;;;;;;12.07;3.33;;;21.50;56.50;;;;;;5080378;28;20251;-93
2022/09/16 12:22:48;;;;;;;10.60;2.87;;;21.50;56.00;;;;;;5114837;28;20308;-92
2022/09/16 12:26:07;;;;;;;;;;;;;;;;;;;;;
2022/09/16 12:28:44;;;;;;;7.10;2.97;;;21.30;55.90;;;;;;5109502;28;20210;-93
2022/09/16 12:31:44;;;;;;;7.20;2.37;;;21.30;56.00;;;;;;5119823;28;20211;-93
2022/09/16 12:34:17;;;;;;;12.60;3.03;;;21.20;55.50;;;;;;5117322;28;20198;-93
2022/09/16 12:36:49;;;;;;;8.37;2.80;;;21.10;55.90;;;;;;5097038;28;20295;-91
2022/09/16 12:39:17;;;;;;;11.10;2.47;;;21.10;56.50;;;;;;5116307;28;20890;-93
2022/09/16 12:46:27;;;;;;;7.10;2.33;;;20.90;57.90;;;;;;5112575;22;20233;-94
2022/09/16 12:49:35;;;;;;;10.57;3.10;;;20.80;58.30;;;;;;4956697;28;20212;-92
2022/09/16 12:52:42;;;;;;;12.43;2.67;;;20.70;58.40;;;;;;4966372;28;20206;-94
2022/09/16 12:56:03;;;;;;;8.10;2.83;;;20.60;59.20;;;;;;4965890;28;20212;-94
2022/09/16 12:59:06;;;;;;;9.90;2.30;;;20.50;60.30;;;;;;4968004;28;20456;-94
2022/09/16 13:01:42;;;;;;;8.60;2.67;;;20.50;60.00;;;;;;4950928;28;20212;-94
2022/09/16 13:04:23;;;;;;;6.37;1.80;;;20.50;59.70;;;;;;5004748;28;20568;-96
2022/09/16 13:06:57;;;;;;;7.17;2.50;;;20.50;59.10;;;;;;5096775;28;20232;-94
2022/09/16 13:09:32;;;;;;;7.40;2.50;;;20.50;59.50;;;;;;5116218;28;20206;-95
2022/09/16 13:12:04;;;;;;;15.03;3.57;;;20.50;59.90;;;;;;5120361;22;20307;-93
2022/09/16 13:14:42;;;;;;;12.40;3.27;;;20.60;60.10;;;;;;5087880;28;20201;-92
2022/09/16 13:17:12;;;;;;;3.63;1.40;;;20.60;60.60;;;;;;5091240;28;20232;-93
2022/09/16 13:20:01;;;;;;;7.47;2.13;;;20.70;59.70;;;;;;5096611;28;20208;-92
2022/09/16 13:22:46;;;;;;;7.70;2.13;;;20.70;58.30;;;;;;5094775;28;20311;-95
2022/09/16 13:25:24;;;;;;;9.07;2.80;;;20.80;58.50;;;;;;5096025;28;20200;-94
2022/09/16 13:28:24;;;;;;;9.57;2.60;;;20.80;58.00;;;;;;5099001;28;20206;-93
2022/09/16 13:31:17;;;;;;;6.47;1.90;;;20.80;58.10;;;;;;5096437;28;20214;-94
2022/09/16 13:33:45;;;;;;;10.47;2.97;;;21.00;58.60;;;;;;5096195;28;20292;-91
2022/09/16 13:36:33;;;;;;;7.50;2.63;;;21.00;58.30;;;;;;5094767;28;20227;-92
2022/09/16 13:39:04;;;;;;;3.93;1.40;;;21.20;57.60;;;;;;5077351;28;20229;-92
2022/09/16 13:41:38;;;;;;;7.93;2.30;;;21.30;57.30;;;;;;5088954;28;20238;-91
2022/09/16 13:44:40;;;;;;;8.37;2.63;;;21.50;56.80;;;;;;5095116;28;20234;-90
2022/09/16 13:47:15;;;;;;;8.00;2.83;;;21.60;55.80;;;;;;5088801;28;20202;-90
2022/09/16 13:49:48;;;;;;;4.80;1.83;;;21.80;55.80;;;;;;5090954;28;20202;-90